sensor_id;sensor_type;location;lat;lon;timestamp;temperature;humidity
65598;SHT31;52267;51.984;20.956;2024-01-30T00:01:16;1.12;84.08
65598;SHT31;52267;51.984;20.956;2024-01-30T00:03:47;1.11;84.01
65598;SHT31;52267;51.984;20.956;2024-01-30T00:06:14;1.11;84.09
65598;SHT31;52267;51.984;20.956;2024-01-30T00:08:45;1.09;84.33
65598;SHT31;52267;51.984;20.956;2024-01-30T00:11:15;1.09;84.36
65598;SHT31;52267;51.984;20.956;2024-01-30T00:13:43;1.08;84.13
65598;SHT31;52267;51.984;20.956;2024-01-30T00:16:19;1.12;84.11
65598;SHT31;52267;51.984;20.956;2024-01-30T00:18:48;1.11;84.22
65598;SHT31;52267;51.984;20.956;2024-01-30T00:21:15;1.11;83.99
65598;SHT31;52267;51.984;20.956;2024-01-30T00:23:42;1.10;84.22
65598;SHT31;52267;51.984;20.956;2024-01-30T00:26:09;1.11;84.13
65598;SHT31;52267;51.984;20.956;2024-01-30T00:28:36;1.09;84.30
65598;SHT31;52267;51.984;20.956;2024-01-30T00:31:04;1.10;84.19
65598;SHT31;52267;51.984;20.956;2024-01-30T00:33:33;1.10;84.02
65598;SHT31;52267;51.984;20.956;2024-01-30T00:36:00;1.11;84.00
65598;SHT31;52267;51.984;20.956;2024-01-30T00:38:27;1.10;84.25
65598;SHT31;52267;51.984;20.956;2024-01-30T00:40:55;1.10;84.09
65598;SHT31;52267;51.984;20.956;2024-01-30T00:43:21;1.08;84.44
65598;SHT31;52267;51.984;20.956;2024-01-30T00:45:51;1.09;84.30
65598;SHT31;52267;51.984;20.956;2024-01-30T00:48:21;1.09;84.42
65598;SHT31;52267;51.984;20.956;2024-01-30T00:50:48;1.10;84.40
65598;SHT31;52267;51.984;20.956;2024-01-30T00:53:15;1.08;84.36
65598;SHT31;52267;51.984;20.956;2024-01-30T00:55:42;1.10;84.27
65598;SHT31;52267;51.984;20.956;2024-01-30T00:58:12;1.09;84.40
65598;SHT31;52267;51.984;20.956;2024-01-30T01:00:39;1.11;84.09
65598;SHT31;52267;51.984;20.956;2024-01-30T01:03:06;1.12;84.18
65598;SHT31;52267;51.984;20.956;2024-01-30T01:05:33;1.12;84.22
65598;SHT31;52267;51.984;20.956;2024-01-30T01:08:00;1.11;84.15
65598;SHT31;52267;51.984;20.956;2024-01-30T01:10:27;1.10;84.18
65598;SHT31;52267;51.984;20.956;2024-01-30T01:12:55;1.08;84.15
65598;SHT31;52267;51.984;20.956;2024-01-30T01:15:22;1.12;83.96
65598;SHT31;52267;51.984;20.956;2024-01-30T01:17:49;1.14;83.82
65598;SHT31;52267;51.984;20.956;2024-01-30T01:20:16;1.13;83.72
65598;SHT31;52267;51.984;20.956;2024-01-30T01:22:43;1.14;83.61
65598;SHT31;52267;51.984;20.956;2024-01-30T01:25:10;1.16;83.49
65598;SHT31;52267;51.984;20.956;2024-01-30T01:27:37;1.14;83.49
65598;SHT31;52267;51.984;20.956;2024-01-30T01:30:10;1.06;83.59
65598;SHT31;52267;51.984;20.956;2024-01-30T01:32:40;1.03;83.68
65598;SHT31;52267;51.984;20.956;2024-01-30T01:35:15;1.00;83.71
65598;SHT31;52267;51.984;20.956;2024-01-30T01:37:42;0.94;83.70
65598;SHT31;52267;51.984;20.956;2024-01-30T01:40:09;0.92;83.73
65598;SHT31;52267;51.984;20.956;2024-01-30T01:42:36;0.90;83.74
65598;SHT31;52267;51.984;20.956;2024-01-30T01:45:03;0.90;83.67
65598;SHT31;52267;51.984;20.956;2024-01-30T01:47:32;0.88;83.69
65598;SHT31;52267;51.984;20.956;2024-01-30T01:49:59;0.86;83.70
65598;SHT31;52267;51.984;20.956;2024-01-30T01:52:26;0.87;83.72
65598;SHT31;52267;51.984;20.956;2024-01-30T01:54:53;0.82;83.68
65598;SHT31;52267;51.984;20.956;2024-01-30T01:57:20;0.78;83.68
65598;SHT31;52267;51.984;20.956;2024-01-30T01:59:47;0.75;83.66
65598;SHT31;52267;51.984;20.956;2024-01-30T02:02:14;0.73;83.76
65598;SHT31;52267;51.984;20.956;2024-01-30T02:04:44;0.68;83.95
65598;SHT31;52267;51.984;20.956;2024-01-30T02:07:12;0.64;84.04
65598;SHT31;52267;51.984;20.956;2024-01-30T02:09:39;0.63;84.03
65598;SHT31;52267;51.984;20.956;2024-01-30T02:12:06;0.63;84.00
65598;SHT31;52267;51.984;20.956;2024-01-30T02:14:33;0.65;83.84
65598;SHT31;52267;51.984;20.956;2024-01-30T02:17:10;0.60;84.07
65598;SHT31;52267;51.984;20.956;2024-01-30T02:19:38;0.60;84.07
65598;SHT31;52267;51.984;20.956;2024-01-30T02:22:05;0.59;84.00
65598;SHT31;52267;51.984;20.956;2024-01-30T02:24:32;0.56;84.03
65598;SHT31;52267;51.984;20.956;2024-01-30T02:26:59;0.51;84.26
65598;SHT31;52267;51.984;20.956;2024-01-30T02:29:26;0.47;84.45
65598;SHT31;52267;51.984;20.956;2024-01-30T02:31:53;0.42;84.62
65598;SHT31;52267;51.984;20.956;2024-01-30T02:34:20;0.36;84.72
65598;SHT31;52267;51.984;20.956;2024-01-30T02:36:47;0.32;84.90
65598;SHT31;52267;51.984;20.956;2024-01-30T02:39:14;0.32;84.70
65598;SHT31;52267;51.984;20.956;2024-01-30T02:41:41;0.28;84.80
65598;SHT31;52267;51.984;20.956;2024-01-30T02:44:08;0.23;84.73
65598;SHT31;52267;51.984;20.956;2024-01-30T02:46:35;0.23;84.56
65598;SHT31;52267;51.984;20.956;2024-01-30T02:49:03;0.21;84.78
65598;SHT31;52267;51.984;20.956;2024-01-30T02:51:30;0.20;84.93
65598;SHT31;52267;51.984;20.956;2024-01-30T02:53:57;0.19;85.20
65598;SHT31;52267;51.984;20.956;2024-01-30T02:56:24;0.17;85.07
65598;SHT31;52267;51.984;20.956;2024-01-30T02:58:51;0.18;84.91
65598;SHT31;52267;51.984;20.956;2024-01-30T03:01:18;0.18;84.93
65598;SHT31;52267;51.984;20.956;2024-01-30T03:03:45;0.20;84.78
65598;SHT31;52267;51.984;20.956;2024-01-30T03:06:12;0.22;84.71
65598;SHT31;52267;51.984;20.956;2024-01-30T03:08:39;0.25;84.67
65598;SHT31;52267;51.984;20.956;2024-01-30T03:11:06;0.22;84.82
65598;SHT31;52267;51.984;20.956;2024-01-30T03:13:33;0.21;84.95
65598;SHT31;52267;51.984;20.956;2024-01-30T03:16:00;0.18;85.12
65598;SHT31;52267;51.984;20.956;2024-01-30T03:18:27;0.18;85.14
65598;SHT31;52267;51.984;20.956;2024-01-30T03:20:53;0.19;85.04
65598;SHT31;52267;51.984;20.956;2024-01-30T03:23:20;0.19;85.04
65598;SHT31;52267;51.984;20.956;2024-01-30T03:25:47;0.14;85.33
65598;SHT31;52267;51.984;20.956;2024-01-30T03:28:14;0.13;85.33
65598;SHT31;52267;51.984;20.956;2024-01-30T03:30:41;0.11;85.55
65598;SHT31;52267;51.984;20.956;2024-01-30T03:33:08;0.11;85.46
65598;SHT31;52267;51.984;20.956;2024-01-30T03:35:35;0.11;85.45
65598;SHT31;52267;51.984;20.956;2024-01-30T03:38:02;0.13;85.38
65598;SHT31;52267;51.984;20.956;2024-01-30T03:40:30;0.16;85.24
65598;SHT31;52267;51.984;20.956;2024-01-30T03:42:56;0.20;85.08
65598;SHT31;52267;51.984;20.956;2024-01-30T03:45:24;0.20;84.98
65598;SHT31;52267;51.984;20.956;2024-01-30T03:47:51;0.19;84.93
65598;SHT31;52267;51.984;20.956;2024-01-30T03:50:18;0.18;84.89
65598;SHT31;52267;51.984;20.956;2024-01-30T03:52:45;0.16;84.94
65598;SHT31;52267;51.984;20.956;2024-01-30T03:55:12;0.10;85.18
65598;SHT31;52267;51.984;20.956;2024-01-30T03:57:39;0.05;85.22
65598;SHT31;52267;51.984;20.956;2024-01-30T04:00:06;0.03;85.22
65598;SHT31;52267;51.984;20.956;2024-01-30T04:02:35;-0.01;85.53
65598;SHT31;52267;51.984;20.956;2024-01-30T04:05:02;-0.02;85.53
65598;SHT31;52267;51.984;20.956;2024-01-30T04:07:29;-0.00;85.33
65598;SHT31;52267;51.984;20.956;2024-01-30T04:09:56;-0.04;85.38
65598;SHT31;52267;51.984;20.956;2024-01-30T04:12:23;-0.03;85.38
65598;SHT31;52267;51.984;20.956;2024-01-30T04:14:50;-0.02;85.39
65598;SHT31;52267;51.984;20.956;2024-01-30T04:17:17;-0.01;85.23
65598;SHT31;52267;51.984;20.956;2024-01-30T04:19:44;0.00;85.03
65598;SHT31;52267;51.984;20.956;2024-01-30T04:22:11;-0.01;85.03
65598;SHT31;52267;51.984;20.956;2024-01-30T04:24:38;-0.05;85.28
65598;SHT31;52267;51.984;20.956;2024-01-30T04:27:06;-0.10;85.40
65598;SHT31;52267;51.984;20.956;2024-01-30T04:29:33;-0.10;85.33
65598;SHT31;52267;51.984;20.956;2024-01-30T04:32:00;-0.07;85.23
65598;SHT31;52267;51.984;20.956;2024-01-30T04:34:27;-0.05;85.15
65598;SHT31;52267;51.984;20.956;2024-01-30T04:36:54;-0.08;85.27
65598;SHT31;52267;51.984;20.956;2024-01-30T04:39:21;-0.09;85.19
65598;SHT31;52267;51.984;20.956;2024-01-30T04:41:48;-0.10;85.12
65598;SHT31;52267;51.984;20.956;2024-01-30T04:44:15;-0.12;85.16
65598;SHT31;52267;51.984;20.956;2024-01-30T04:46:42;-0.16;85.38
65598;SHT31;52267;51.984;20.956;2024-01-30T04:49:09;-0.16;85.30
65598;SHT31;52267;51.984;20.956;2024-01-30T04:51:36;-0.13;85.12
65598;SHT31;52267;51.984;20.956;2024-01-30T04:54:03;-0.11;84.99
65598;SHT31;52267;51.984;20.956;2024-01-30T04:56:30;-0.12;84.88
65598;SHT31;52267;51.984;20.956;2024-01-30T04:58:58;-0.13;84.80
65598;SHT31;52267;51.984;20.956;2024-01-30T05:01:25;-0.14;84.86
65598;SHT31;52267;51.984;20.956;2024-01-30T05:03:51;-0.20;85.04
65598;SHT31;52267;51.984;20.956;2024-01-30T05:06:25;-0.24;85.18
65598;SHT31;52267;51.984;20.956;2024-01-30T05:08:53;-0.27;85.36
65598;SHT31;52267;51.984;20.956;2024-01-30T05:11:20;-0.31;85.58
65598;SHT31;52267;51.984;20.956;2024-01-30T05:13:47;-0.33;85.68
65598;SHT31;52267;51.984;20.956;2024-01-30T05:16:14;-0.33;85.64
65598;SHT31;52267;51.984;20.956;2024-01-30T05:18:41;-0.35;85.59
65598;SHT31;52267;51.984;20.956;2024-01-30T05:21:08;-0.35;85.61
65598;SHT31;52267;51.984;20.956;2024-01-30T05:23:37;-0.35;85.50
65598;SHT31;52267;51.984;20.956;2024-01-30T05:26:04;-0.33;85.34
65598;SHT31;52267;51.984;20.956;2024-01-30T05:28:31;-0.37;85.66
65598;SHT31;52267;51.984;20.956;2024-01-30T05:30:58;-0.39;85.59
65598;SHT31;52267;51.984;20.956;2024-01-30T05:33:25;-0.39;85.43
65598;SHT31;52267;51.984;20.956;2024-01-30T05:35:52;-0.39;85.60
65598;SHT31;52267;51.984;20.956;2024-01-30T05:38:20;-0.39;85.57
65598;SHT31;52267;51.984;20.956;2024-01-30T05:40:47;-0.38;85.71
65598;SHT31;52267;51.984;20.956;2024-01-30T05:43:14;-0.39;85.71
65598;SHT31;52267;51.984;20.956;2024-01-30T05:45:41;-0.35;85.55
65598;SHT31;52267;51.984;20.956;2024-01-30T05:48:08;-0.35;85.60
65598;SHT31;52267;51.984;20.956;2024-01-30T05:50:35;-0.32;85.60
65598;SHT31;52267;51.984;20.956;2024-01-30T05:53:02;-0.32;85.65
65598;SHT31;52267;51.984;20.956;2024-01-30T05:55:30;-0.28;85.50
65598;SHT31;52267;51.984;20.956;2024-01-30T05:57:57;-0.25;85.35
65598;SHT31;52267;51.984;20.956;2024-01-30T06:00:24;-0.24;85.28
65598;SHT31;52267;51.984;20.956;2024-01-30T06:02:51;-0.23;85.39
65598;SHT31;52267;51.984;20.956;2024-01-30T06:05:18;-0.23;85.40
65598;SHT31;52267;51.984;20.956;2024-01-30T06:07:45;-0.19;85.24
65598;SHT31;52267;51.984;20.956;2024-01-30T06:10:12;-0.20;85.31
65598;SHT31;52267;51.984;20.956;2024-01-30T06:12:39;-0.20;85.33
65598;SHT31;52267;51.984;20.956;2024-01-30T06:15:06;-0.19;85.26
65598;SHT31;52267;51.984;20.956;2024-01-30T06:17:34;-0.17;85.15
65598;SHT31;52267;51.984;20.956;2024-01-30T06:20:01;-0.14;85.12
65598;SHT31;52267;51.984;20.956;2024-01-30T06:22:28;-0.14;85.06
65598;SHT31;52267;51.984;20.956;2024-01-30T06:24:55;-0.12;84.97
65598;SHT31;52267;51.984;20.956;2024-01-30T06:27:22;-0.11;84.87
65598;SHT31;52267;51.984;20.956;2024-01-30T06:29:49;-0.10;84.80
65598;SHT31;52267;51.984;20.956;2024-01-30T06:32:16;-0.13;84.80
65598;SHT31;52267;51.984;20.956;2024-01-30T06:34:43;-0.13;84.71
65598;SHT31;52267;51.984;20.956;2024-01-30T06:37:10;-0.12;84.70
65598;SHT31;52267;51.984;20.956;2024-01-30T06:39:38;-0.12;84.67
65598;SHT31;52267;51.984;20.956;2024-01-30T06:42:05;-0.09;84.51
65598;SHT31;52267;51.984;20.956;2024-01-30T06:44:32;-0.07;84.43
65598;SHT31;52267;51.984;20.956;2024-01-30T06:46:59;-0.01;84.28
65598;SHT31;52267;51.984;20.956;2024-01-30T06:49:27;-0.00;84.19
65598;SHT31;52267;51.984;20.956;2024-01-30T06:51:54;0.01;84.10
65598;SHT31;52267;51.984;20.956;2024-01-30T06:54:21;0.03;84.09
65598;SHT31;52267;51.984;20.956;2024-01-30T06:56:48;0.08;84.00
65598;SHT31;52267;51.984;20.956;2024-01-30T06:59:15;0.12;83.83
65598;SHT31;52267;51.984;20.956;2024-01-30T07:01:42;0.17;83.66
65598;SHT31;52267;51.984;20.956;2024-01-30T07:04:09;0.23;83.42
65598;SHT31;52267;51.984;20.956;2024-01-30T07:06:36;0.30;83.31
65598;SHT31;52267;51.984;20.956;2024-01-30T07:09:03;0.35;83.10
65598;SHT31;52267;51.984;20.956;2024-01-30T07:11:30;0.40;82.86
65598;SHT31;52267;51.984;20.956;2024-01-30T07:13:57;0.44;82.66
65598;SHT31;52267;51.984;20.956;2024-01-30T07:16:25;0.48;82.67
65598;SHT31;52267;51.984;20.956;2024-01-30T07:18:52;0.49;82.49
65598;SHT31;52267;51.984;20.956;2024-01-30T07:21:19;0.51;82.40
65598;SHT31;52267;51.984;20.956;2024-01-30T07:23:48;0.55;82.51
65598;SHT31;52267;51.984;20.956;2024-01-30T07:26:15;0.57;82.46
65598;SHT31;52267;51.984;20.956;2024-01-30T07:28:42;0.60;82.20
65598;SHT31;52267;51.984;20.956;2024-01-30T07:31:10;0.64;82.10
65598;SHT31;52267;51.984;20.956;2024-01-30T07:33:37;0.69;81.97
65598;SHT31;52267;51.984;20.956;2024-01-30T07:36:04;0.76;81.86
65598;SHT31;52267;51.984;20.956;2024-01-30T07:38:32;0.78;81.55
65598;SHT31;52267;51.984;20.956;2024-01-30T07:40:59;0.83;81.67
65598;SHT31;52267;51.984;20.956;2024-01-30T07:43:26;0.93;81.47
65598;SHT31;52267;51.984;20.956;2024-01-30T07:45:53;1.00;81.10
65598;SHT31;52267;51.984;20.956;2024-01-30T07:48:20;1.07;81.11
65598;SHT31;52267;51.984;20.956;2024-01-30T07:50:47;1.18;81.20
65598;SHT31;52267;51.984;20.956;2024-01-30T07:53:14;1.33;80.64
65598;SHT31;52267;51.984;20.956;2024-01-30T07:55:41;1.48;79.94
65598;SHT31;52267;51.984;20.956;2024-01-30T07:58:12;1.56;79.97
65598;SHT31;52267;51.984;20.956;2024-01-30T08:00:39;1.65;79.12
65598;SHT31;52267;51.984;20.956;2024-01-30T08:03:07;1.74;79.02
65598;SHT31;52267;51.984;20.956;2024-01-30T08:05:34;1.81;78.66
65598;SHT31;52267;51.984;20.956;2024-01-30T08:08:01;1.90;78.95
65598;SHT31;52267;51.984;20.956;2024-01-30T08:10:28;2.00;78.59
65598;SHT31;52267;51.984;20.956;2024-01-30T08:12:55;2.11;78.46
65598;SHT31;52267;51.984;20.956;2024-01-30T08:15:22;2.19;77.62
65598;SHT31;52267;51.984;20.956;2024-01-30T08:17:49;2.30;77.97
65598;SHT31;52267;51.984;20.956;2024-01-30T08:20:16;2.39;77.30
65598;SHT31;52267;51.984;20.956;2024-01-30T08:22:43;2.48;76.82
65598;SHT31;52267;51.984;20.956;2024-01-30T08:25:10;2.60;76.87
65598;SHT31;52267;51.984;20.956;2024-01-30T08:27:38;2.68;76.57
65598;SHT31;52267;51.984;20.956;2024-01-30T08:30:06;2.74;76.05
65598;SHT31;52267;51.984;20.956;2024-01-30T08:32:37;2.84;77.24
65598;SHT31;52267;51.984;20.956;2024-01-30T08:35:04;2.91;76.40
65598;SHT31;52267;51.984;20.956;2024-01-30T08:37:33;3.00;76.38
65598;SHT31;52267;51.984;20.956;2024-01-30T08:40:00;3.09;75.41
65598;SHT31;52267;51.984;20.956;2024-01-30T08:42:29;3.20;76.14
65598;SHT31;52267;51.984;20.956;2024-01-30T08:44:56;3.29;76.74
65598;SHT31;52267;51.984;20.956;2024-01-30T08:47:23;3.38;76.70
65598;SHT31;52267;51.984;20.956;2024-01-30T08:49:50;3.45;76.57
65598;SHT31;52267;51.984;20.956;2024-01-30T08:52:17;3.55;76.12
65598;SHT31;52267;51.984;20.956;2024-01-30T08:54:44;3.64;75.99
65598;SHT31;52267;51.984;20.956;2024-01-30T08:57:11;3.74;74.96
65598;SHT31;52267;51.984;20.956;2024-01-30T08:59:38;3.83;73.59
65598;SHT31;52267;51.984;20.956;2024-01-30T09:02:06;3.95;73.92
65598;SHT31;52267;51.984;20.956;2024-01-30T09:04:33;4.08;73.91
65598;SHT31;52267;51.984;20.956;2024-01-30T09:07:00;4.20;73.06
65598;SHT31;52267;51.984;20.956;2024-01-30T09:09:27;4.29;73.33
65598;SHT31;52267;51.984;20.956;2024-01-30T09:11:54;4.41;73.85
65598;SHT31;52267;51.984;20.956;2024-01-30T09:14:21;4.55;71.96
65598;SHT31;52267;51.984;20.956;2024-01-30T09:16:49;4.72;72.75
65598;SHT31;52267;51.984;20.956;2024-01-30T09:19:16;4.89;72.19
65598;SHT31;52267;51.984;20.956;2024-01-30T09:21:43;5.00;69.06
65598;SHT31;52267;51.984;20.956;2024-01-30T09:24:10;5.17;70.36
65598;SHT31;52267;51.984;20.956;2024-01-30T09:26:37;5.31;70.64
65598;SHT31;52267;51.984;20.956;2024-01-30T09:29:04;5.45;69.95
65598;SHT31;52267;51.984;20.956;2024-01-30T09:31:31;5.56;68.74
65598;SHT31;52267;51.984;20.956;2024-01-30T09:33:58;5.64;66.44
65598;SHT31;52267;51.984;20.956;2024-01-30T09:36:25;5.69;66.54
65598;SHT31;52267;51.984;20.956;2024-01-30T09:38:54;5.78;66.86
65598;SHT31;52267;51.984;20.956;2024-01-30T09:41:21;5.89;68.42
65598;SHT31;52267;51.984;20.956;2024-01-30T09:43:51;5.89;66.76
65598;SHT31;52267;51.984;20.956;2024-01-30T09:46:21;5.98;67.47
65598;SHT31;52267;51.984;20.956;2024-01-30T09:48:55;6.10;67.84
65598;SHT31;52267;51.984;20.956;2024-01-30T09:51:22;6.14;66.24
65598;SHT31;52267;51.984;20.956;2024-01-30T09:53:49;6.20;67.49
65598;SHT31;52267;51.984;20.956;2024-01-30T09:56:18;6.15;66.25
65598;SHT31;52267;51.984;20.956;2024-01-30T09:58:46;6.15;65.07
65598;SHT31;52267;51.984;20.956;2024-01-30T10:01:15;6.16;66.01
65598;SHT31;52267;51.984;20.956;2024-01-30T10:03:45;6.20;65.98
65598;SHT31;52267;51.984;20.956;2024-01-30T10:06:12;6.21;65.24
65598;SHT31;52267;51.984;20.956;2024-01-30T10:08:41;6.22;65.62
65598;SHT31;52267;51.984;20.956;2024-01-30T10:11:09;6.22;65.76
65598;SHT31;52267;51.984;20.956;2024-01-30T10:13:36;6.27;65.49
65598;SHT31;52267;51.984;20.956;2024-01-30T10:16:06;6.40;65.23
65598;SHT31;52267;51.984;20.956;2024-01-30T10:18:33;6.54;65.12
65598;SHT31;52267;51.984;20.956;2024-01-30T10:21:00;6.66;65.20
65598;SHT31;52267;51.984;20.956;2024-01-30T10:23:28;6.77;64.98
65598;SHT31;52267;51.984;20.956;2024-01-30T10:25:55;6.81;64.16
65598;SHT31;52267;51.984;20.956;2024-01-30T10:28:22;6.72;64.44
65598;SHT31;52267;51.984;20.956;2024-01-30T10:30:57;6.67;64.68
65598;SHT31;52267;51.984;20.956;2024-01-30T10:33:27;6.79;65.06
65598;SHT31;52267;51.984;20.956;2024-01-30T10:35:56;6.89;63.11
65598;SHT31;52267;51.984;20.956;2024-01-30T10:38:31;7.03;63.80
65598;SHT31;52267;51.984;20.956;2024-01-30T10:41:00;7.15;63.91
65598;SHT31;52267;51.984;20.956;2024-01-30T10:43:31;7.27;63.03
65598;SHT31;52267;51.984;20.956;2024-01-30T10:46:24;7.45;62.25
65598;SHT31;52267;51.984;20.956;2024-01-30T10:48:58;7.71;61.73
65598;SHT31;52267;51.984;20.956;2024-01-30T10:51:26;7.93;63.26
65598;SHT31;52267;51.984;20.956;2024-01-30T10:53:55;8.07;62.38
65598;SHT31;52267;51.984;20.956;2024-01-30T10:56:23;8.23;62.60
65598;SHT31;52267;51.984;20.956;2024-01-30T10:58:52;8.34;60.69
65598;SHT31;52267;51.984;20.956;2024-01-30T11:01:20;8.32;59.18
65598;SHT31;52267;51.984;20.956;2024-01-30T11:03:52;8.20;59.84
65598;SHT31;52267;51.984;20.956;2024-01-30T11:06:24;8.03;61.18
65598;SHT31;52267;51.984;20.956;2024-01-30T11:09:04;7.91;61.76
65598;SHT31;52267;51.984;20.956;2024-01-30T11:11:52;7.95;61.37
65598;SHT31;52267;51.984;20.956;2024-01-30T11:14:28;7.99;60.04
65598;SHT31;52267;51.984;20.956;2024-01-30T11:16:57;8.01;59.02
65598;SHT31;52267;51.984;20.956;2024-01-30T11:19:26;7.99;58.42
65598;SHT31;52267;51.984;20.956;2024-01-30T11:21:54;8.05;60.37
65598;SHT31;52267;51.984;20.956;2024-01-30T11:24:23;8.10;59.62
65598;SHT31;52267;51.984;20.956;2024-01-30T11:26:57;8.12;60.59
65598;SHT31;52267;51.984;20.956;2024-01-30T11:29:26;8.14;60.12
65598;SHT31;52267;51.984;20.956;2024-01-30T11:31:55;8.18;59.01
65598;SHT31;52267;51.984;20.956;2024-01-30T11:34:23;8.20;58.20
65598;SHT31;52267;51.984;20.956;2024-01-30T11:36:52;8.18;58.78
65598;SHT31;52267;51.984;20.956;2024-01-30T11:39:26;8.11;56.70
65598;SHT31;52267;51.984;20.956;2024-01-30T11:41:54;8.18;59.23
65598;SHT31;52267;51.984;20.956;2024-01-30T11:44:22;8.14;57.91
65598;SHT31;52267;51.984;20.956;2024-01-30T11:46:51;8.12;58.00
65598;SHT31;52267;51.984;20.956;2024-01-30T11:49:19;8.09;57.81
65598;SHT31;52267;51.984;20.956;2024-01-30T11:51:46;8.12;58.21
65598;SHT31;52267;51.984;20.956;2024-01-30T11:54:18;8.06;56.63
65598;SHT31;52267;51.984;20.956;2024-01-30T11:56:45;8.06;57.02
65598;SHT31;52267;51.984;20.956;2024-01-30T11:59:12;8.10;57.46
65598;SHT31;52267;51.984;20.956;2024-01-30T12:01:40;8.19;58.24
65598;SHT31;52267;51.984;20.956;2024-01-30T12:04:07;8.25;58.14
65598;SHT31;52267;51.984;20.956;2024-01-30T12:06:36;8.20;56.24
65598;SHT31;52267;51.984;20.956;2024-01-30T12:09:03;8.18;56.56
65598;SHT31;52267;51.984;20.956;2024-01-30T12:11:30;8.23;57.07
65598;SHT31;52267;51.984;20.956;2024-01-30T12:13:58;8.27;56.90
65598;SHT31;52267;51.984;20.956;2024-01-30T12:16:25;8.35;57.37
65598;SHT31;52267;51.984;20.956;2024-01-30T12:18:59;8.45;57.09
65598;SHT31;52267;51.984;20.956;2024-01-30T12:21:28;8.51;56.08
65598;SHT31;52267;51.984;20.956;2024-01-30T12:23:56;8.62;56.00
65598;SHT31;52267;51.984;20.956;2024-01-30T12:26:24;8.61;55.05
65598;SHT31;52267;51.984;20.956;2024-01-30T12:28:54;8.63;55.22
65598;SHT31;52267;51.984;20.956;2024-01-30T12:31:27;8.68;55.52
65598;SHT31;52267;51.984;20.956;2024-01-30T12:33:55;8.77;56.91
65598;SHT31;52267;51.984;20.956;2024-01-30T12:36:23;8.72;54.15
65598;SHT31;52267;51.984;20.956;2024-01-30T12:38:50;8.70;55.70
65598;SHT31;52267;51.984;20.956;2024-01-30T12:41:17;8.69;56.70
65598;SHT31;52267;51.984;20.956;2024-01-30T12:43:46;8.66;55.84
65598;SHT31;52267;51.984;20.956;2024-01-30T12:46:16;8.64;56.99
65598;SHT31;52267;51.984;20.956;2024-01-30T12:48:44;8.60;57.11
65598;SHT31;52267;51.984;20.956;2024-01-30T12:51:11;8.52;56.72
65598;SHT31;52267;51.984;20.956;2024-01-30T12:53:38;8.46;57.28
65598;SHT31;52267;51.984;20.956;2024-01-30T12:56:10;8.41;56.87
65598;SHT31;52267;51.984;20.956;2024-01-30T12:58:37;8.35;56.69
65598;SHT31;52267;51.984;20.956;2024-01-30T13:01:04;8.35;58.23
65598;SHT31;52267;51.984;20.956;2024-01-30T13:03:31;8.36;58.83
65598;SHT31;52267;51.984;20.956;2024-01-30T13:05:58;8.36;57.62
65598;SHT31;52267;51.984;20.956;2024-01-30T13:08:26;8.34;56.68
65598;SHT31;52267;51.984;20.956;2024-01-30T13:10:53;8.29;55.69
65598;SHT31;52267;51.984;20.956;2024-01-30T13:13:20;8.24;56.81
65598;SHT31;52267;51.984;20.956;2024-01-30T13:15:47;8.24;57.51
65598;SHT31;52267;51.984;20.956;2024-01-30T13:18:15;8.23;58.23
65598;SHT31;52267;51.984;20.956;2024-01-30T13:20:42;8.21;58.18
65598;SHT31;52267;51.984;20.956;2024-01-30T13:23:09;8.18;56.97
65598;SHT31;52267;51.984;20.956;2024-01-30T13:25:36;8.17;56.40
65598;SHT31;52267;51.984;20.956;2024-01-30T13:28:03;8.16;57.29
65598;SHT31;52267;51.984;20.956;2024-01-30T13:30:30;8.14;58.06
65598;SHT31;52267;51.984;20.956;2024-01-30T13:32:58;8.12;58.09
65598;SHT31;52267;51.984;20.956;2024-01-30T13:35:25;8.09;57.83
65598;SHT31;52267;51.984;20.956;2024-01-30T13:37:52;8.06;56.16
65598;SHT31;52267;51.984;20.956;2024-01-30T13:40:19;8.05;57.26
65598;SHT31;52267;51.984;20.956;2024-01-30T13:42:48;8.02;57.26
65598;SHT31;52267;51.984;20.956;2024-01-30T13:45:15;8.01;58.16
65598;SHT31;52267;51.984;20.956;2024-01-30T13:47:43;8.02;57.59
65598;SHT31;52267;51.984;20.956;2024-01-30T13:50:10;8.02;57.63
65598;SHT31;52267;51.984;20.956;2024-01-30T13:52:41;8.00;57.13
65598;SHT31;52267;51.984;20.956;2024-01-30T13:55:10;7.99;57.99
65598;SHT31;52267;51.984;20.956;2024-01-30T13:57:38;7.99;58.10
65598;SHT31;52267;51.984;20.956;2024-01-30T14:00:05;7.98;57.70
65598;SHT31;52267;51.984;20.956;2024-01-30T14:02:33;7.97;57.32
65598;SHT31;52267;51.984;20.956;2024-01-30T14:05:00;7.95;57.38
65598;SHT31;52267;51.984;20.956;2024-01-30T14:07:27;7.94;57.34
65598;SHT31;52267;51.984;20.956;2024-01-30T14:09:55;7.95;57.83
65598;SHT31;52267;51.984;20.956;2024-01-30T14:12:22;7.92;57.07
65598;SHT31;52267;51.984;20.956;2024-01-30T14:14:49;7.90;57.03
65598;SHT31;52267;51.984;20.956;2024-01-30T14:17:17;7.87;57.40
65598;SHT31;52267;51.984;20.956;2024-01-30T14:19:44;7.83;57.95
65598;SHT31;52267;51.984;20.956;2024-01-30T14:22:11;7.82;57.86
65598;SHT31;52267;51.984;20.956;2024-01-30T14:24:38;7.80;57.62
65598;SHT31;52267;51.984;20.956;2024-01-30T14:27:05;7.76;57.75
65598;SHT31;52267;51.984;20.956;2024-01-30T14:29:34;7.73;57.03
65598;SHT31;52267;51.984;20.956;2024-01-30T14:32:01;7.70;57.61
65598;SHT31;52267;51.984;20.956;2024-01-30T14:34:30;7.66;57.88
65598;SHT31;52267;51.984;20.956;2024-01-30T14:36:57;7.62;58.34
65598;SHT31;52267;51.984;20.956;2024-01-30T14:39:25;7.58;58.20
65598;SHT31;52267;51.984;20.956;2024-01-30T14:41:52;7.54;58.63
65598;SHT31;52267;51.984;20.956;2024-01-30T14:44:20;7.48;58.39
65598;SHT31;52267;51.984;20.956;2024-01-30T14:46:47;7.43;58.60
65598;SHT31;52267;51.984;20.956;2024-01-30T14:49:15;7.39;58.15
65598;SHT31;52267;51.984;20.956;2024-01-30T14:51:42;7.33;58.98
65598;SHT31;52267;51.984;20.956;2024-01-30T14:54:09;7.27;58.61
65598;SHT31;52267;51.984;20.956;2024-01-30T14:56:37;7.21;58.93
65598;SHT31;52267;51.984;20.956;2024-01-30T14:59:04;7.16;59.41
65598;SHT31;52267;51.984;20.956;2024-01-30T15:01:32;7.08;58.88
65598;SHT31;52267;51.984;20.956;2024-01-30T15:03:59;7.01;59.13
65598;SHT31;52267;51.984;20.956;2024-01-30T15:06:26;6.93;59.19
65598;SHT31;52267;51.984;20.956;2024-01-30T15:08:54;6.86;59.59
65598;SHT31;52267;51.984;20.956;2024-01-30T15:11:21;6.77;60.38
65598;SHT31;52267;51.984;20.956;2024-01-30T15:13:48;6.65;60.70
65598;SHT31;52267;51.984;20.956;2024-01-30T15:16:15;6.53;61.07
65598;SHT31;52267;51.984;20.956;2024-01-30T15:18:43;6.45;61.32
65598;SHT31;52267;51.984;20.956;2024-01-30T15:21:10;6.39;61.56
65598;SHT31;52267;51.984;20.956;2024-01-30T15:23:37;6.32;61.78
65598;SHT31;52267;51.984;20.956;2024-01-30T15:26:04;6.22;61.89
65598;SHT31;52267;51.984;20.956;2024-01-30T15:28:35;6.13;62.15
65598;SHT31;52267;51.984;20.956;2024-01-30T15:31:05;6.02;62.28